Time;durP1;ratioP1;P1;durP2;ratioP2;P2;SDS_P1;SDS_P2;PMS_P1;PMS_P2;Temp;Humidity;BMP_temperature;BMP_pressure;BME280_temperature;BME280_humidity;BME280_pressure;Samples;Min_cycle;Max_cycle;Signal;HPM_P1;HPM_P2
2022/10/05 00:02:17;;;;;;;7.60;5.93;;;15.20;59.60;;;;;;5107489;28;20534;-90
2022/10/05 00:04:45;;;;;;;9.43;5.57;;;15.20;59.10;;;;;;5114269;27;20484;-90
2022/10/05 00:07:15;;;;;;;16.93;6.37;;;15.20;59.00;;;;;;5114842;27;20577;-91
2022/10/05 00:09:44;;;;;;;13.03;6.87;;;15.30;59.00;;;;;;5097749;28;20551;-90
2022/10/05 00:12:16;;;;;;;11.30;7.60;;;15.30;59.20;;;;;;5075887;28;20479;-90
2022/10/05 00:14:45;;;;;;;10.40;6.10;;;15.30;59.30;;;;;;5099833;28;20437;-90
2022/10/05 00:17:18;;;;;;;8.70;6.47;;;15.20;59.60;;;;;;5115337;28;21427;-90
2022/10/05 00:19:50;;;;;;;18.00;8.10;;;15.10;59.80;;;;;;5106358;27;20548;-90
2022/10/05 00:22:19;;;;;;;39.57;9.10;;;14.80;60.60;;;;;;5109455;27;20447;-90
2022/10/05 00:24:49;;;;;;;56.00;8.73;;;14.70;61.30;;;;;;5120448;27;20493;-90
2022/10/05 00:27:20;;;;;;;11.00;6.53;;;14.60;61.40;;;;;;5123562;27;20468;-90
2022/10/05 00:29:49;;;;;;;20.57;6.10;;;14.70;61.70;;;;;;5092513;28;20446;-91
2022/10/05 00:32:18;;;;;;;40.80;8.00;;;14.80;61.20;;;;;;5093676;27;20499;-90
2022/10/05 00:34:46;;;;;;;23.90;7.33;;;14.90;61.10;;;;;;5112246;27;20452;-90
2022/10/05 00:37:14;;;;;;;47.17;9.93;;;14.80;61.10;;;;;;5122745;27;20890;-91
2022/10/05 00:39:42;;;;;;;19.93;7.17;;;14.60;61.40;;;;;;5104613;27;20434;-91
2022/10/05 00:42:28;;;;;;;19.77;6.13;;;14.80;61.40;;;;;;5117651;27;20458;-91
2022/10/05 00:45:02;;;;;;;250.07;18.13;;;15.00;61.00;;;;;;5090473;27;20527;-92
2022/10/05 00:47:49;;;;;;;73.50;9.60;;;15.00;60.10;;;;;;5105051;27;20438;-90
2022/10/05 00:50:47;;;;;;;50.50;8.80;;;14.40;61.60;;;;;;5107559;27;21040;-89
2022/10/05 00:53:31;;;;;;;21.10;6.73;;;14.30;62.60;;;;;;5119914;27;20441;-90
2022/10/05 00:56:03;;;;;;;9.93;5.30;;;14.30;62.70;;;;;;5092120;28;20471;-91
2022/10/05 00:58:43;;;;;;;8.53;4.80;;;14.50;62.10;;;;;;5121445;27;20485;-90
2022/10/05 01:01:13;;;;;;;15.07;5.97;;;14.80;61.50;;;;;;5094328;27;20532;-91
2022/10/05 01:03:55;;;;;;;54.67;7.97;;;14.90;61.00;;;;;;5097986;27;20886;-91
2022/10/05 01:06:29;;;;;;;24.27;7.00;;;15.00;60.60;;;;;;5092885;27;20517;-90
2022/10/05 01:09:08;;;;;;;57.23;7.83;;;15.00;59.90;;;;;;5102597;27;20496;-90
2022/10/05 01:11:43;;;;;;;80.20;8.37;;;14.80;60.30;;;;;;5093557;27;20430;-90
2022/10/05 01:14:18;;;;;;;32.50;6.77;;;14.50;60.00;;;;;;5120571;27;20454;-90
2022/10/05 01:16:51;;;;;;;12.60;6.47;;;13.90;62.60;;;;;;5120129;27;20519;-90
2022/10/05 01:19:40;;;;;;;82.50;9.90;;;13.80;63.20;;;;;;5111902;27;20449;-91
2022/10/05 01:22:18;;;;;;;30.60;7.73;;;13.90;62.60;;;;;;5089200;27;20434;-90
2022/10/05 01:24:57;;;;;;;80.40;8.43;;;14.10;62.30;;;;;;5111908;27;20484;-90
2022/10/05 01:27:49;;;;;;;62.30;6.90;;;13.70;63.20;;;;;;5090969;27;20474;-91
2022/10/05 01:30:18;;;;;;;30.17;6.70;;;13.70;63.50;;;;;;5089090;27;20486;-90
2022/10/05 01:32:53;;;;;;;9.37;6.20;;;14.00;63.50;;;;;;5093499;27;20474;-90
2022/10/05 01:35:34;;;;;;;28.10;6.70;;;14.30;62.60;;;;;;5116478;27;20445;-90
2022/10/05 01:38:16;;;;;;;126.70;11.23;;;14.40;61.60;;;;;;5116509;27;20446;-91
2022/10/05 01:40:54;;;;;;;99.33;9.03;;;14.10;61.10;;;;;;5103828;27;20441;-91
2022/10/05 01:43:30;;;;;;;10.23;3.63;;;13.90;61.30;;;;;;5089677;27;20553;-89
2022/10/05 01:46:04;;;;;;;8.70;4.33;;;13.70;61.50;;;;;;5091750;28;20831;-91
2022/10/05 01:48:41;;;;;;;4.33;3.40;;;13.80;61.50;;;;;;5117699;27;21028;-90
2022/10/05 01:51:17;;;;;;;3.87;3.30;;;13.60;61.50;;;;;;5120119;27;20502;-89
2022/10/05 01:53:57;;;;;;;3.77;2.90;;;13.60;60.10;;;;;;5117766;27;20476;-90
2022/10/05 01:56:31;;;;;;;4.60;3.00;;;13.40;61.00;;;;;;5101156;27;20462;-89
2022/10/05 01:59:15;;;;;;;6.80;3.90;;;13.60;61.10;;;;;;5118117;27;20449;-90
2022/10/05 02:01:54;;;;;;;4.30;3.90;;;13.70;60.70;;;;;;5085624;27;20457;-91
2022/10/05 02:04:27;;;;;;;4.10;3.80;;;14.00;60.00;;;;;;5109193;27;20442;-90
2022/10/05 02:06:56;;;;;;;11.37;4.07;;;14.20;59.90;;;;;;5122371;27;20485;-90
2022/10/05 02:09:28;;;;;;;15.83;4.13;;;14.40;59.40;;;;;;5102599;27;20545;-90
2022/10/05 02:12:01;;;;;;;36.50;7.17;;;14.20;59.20;;;;;;5104450;27;20514;-90
2022/10/05 02:14:33;;;;;;;88.40;8.10;;;13.70;61.00;;;;;;5092660;27;20514;-90
2022/10/05 02:17:07;;;;;;;19.17;5.80;;;13.80;61.30;;;;;;5092900;27;20467;-91
2022/10/05 02:19:39;;;;;;;56.13;6.93;;;14.00;61.40;;;;;;5086148;27;20534;-90
2022/10/05 02:22:08;;;;;;;15.23;4.90;;;14.00;61.60;;;;;;5099911;28;20447;-90
2022/10/05 02:24:42;;;;;;;31.17;5.27;;;14.10;61.50;;;;;;5089953;27;20541;-90
2022/10/05 02:27:10;;;;;;;11.53;5.03;;;14.30;60.80;;;;;;5091571;27;20459;-91
2022/10/05 02:29:45;;;;;;;42.70;8.10;;;14.30;60.40;;;;;;5101845;27;20512;-90
2022/10/05 02:32:17;;;;;;;12.70;4.80;;;14.40;60.20;;;;;;5086397;27;20534;-91
2022/10/05 02:34:44;;;;;;;37.07;6.50;;;14.40;60.10;;;;;;5097987;27;20446;-90
2022/10/05 02:37:26;;;;;;;24.53;6.47;;;14.40;60.00;;;;;;5090079;27;20797;-91
2022/10/05 02:40:11;;;;;;;47.20;6.90;;;14.20;60.40;;;;;;5085378;27;20457;-89
2022/10/05 02:42:45;;;;;;;17.13;4.80;;;14.30;60.60;;;;;;5107639;27;20490;-90
2022/10/05 02:45:23;;;;;;;28.00;7.70;;;14.40;60.70;;;;;;5084816;27;20462;-90
2022/10/05 02:47:58;;;;;;;7.53;4.10;;;14.40;60.70;;;;;;5100264;27;20933;-90
2022/10/05 02:50:32;;;;;;;12.10;4.13;;;14.40;60.50;;;;;;5106821;27;20449;-90
2022/10/05 02:53:13;;;;;;;4.70;3.40;;;14.40;60.30;;;;;;5116226;27;20445;-90
2022/10/05 02:55:48;;;;;;;2.90;2.60;;;14.40;59.20;;;;;;5090574;27;20582;-90
2022/10/05 02:58:21;;;;;;;3.47;2.70;;;14.00;58.80;;;;;;5107156;27;20461;-89
2022/10/05 03:00:56;;;;;;;3.10;2.80;;;14.00;58.70;;;;;;5124023;27;20447;-90
2022/10/05 03:03:33;;;;;;;3.93;3.23;;;14.00;58.30;;;;;;5104282;27;20553;-90
2022/10/05 03:06:03;;;;;;;6.90;3.30;;;13.50;58.70;;;;;;5121925;27;20530;-89
2022/10/05 03:08:38;;;;;;;3.53;3.23;;;12.80;60.00;;;;;;5108184;27;20879;-89
2022/10/05 03:11:11;;;;;;;4.57;3.20;;;12.50;61.70;;;;;;5118260;27;20996;-89
2022/10/05 03:13:48;;;;;;;3.63;3.33;;;12.30;62.50;;;;;;5116744;27;20733;-89
2022/10/05 03:16:34;;;;;;;3.40;3.10;;;12.40;62.50;;;;;;5120034;27;20960;-89
2022/10/05 03:19:13;;;;;;;3.87;3.17;;;12.80;61.90;;;;;;5100610;27;20449;-91
2022/10/05 03:21:56;;;;;;;69.83;31.50;;;13.00;60.10;;;;;;5123647;27;20941;-90
2022/10/05 03:24:40;;;;;;;29.73;14.83;;;12.40;61.80;;;;;;5117736;27;20426;-91
2022/10/05 03:27:21;;;;;;;7.17;5.30;;;12.10;63.90;;;;;;5115561;27;20561;-90
2022/10/05 03:29:57;;;;;;;4.60;3.63;;;12.50;63.70;;;;;;5080847;27;20996;-89
2022/10/05 03:32:33;;;;;;;4.77;3.77;;;12.80;61.40;;;;;;5117032;27;20498;-90
2022/10/05 03:35:06;;;;;;;5.07;4.40;;;12.80;61.00;;;;;;5085565;27;20474;-90
2022/10/05 03:37:42;;;;;;;5.00;4.27;;;13.00;60.60;;;;;;5090611;28;20454;-91
2022/10/05 03:40:23;;;;;;;23.73;5.20;;;13.10;60.60;;;;;;5100097;27;21014;-90
2022/10/05 03:43:00;;;;;;;48.40;24.87;;;12.70;61.80;;;;;;5107109;27;20466;-91
2022/10/05 03:45:35;;;;;;;44.60;20.10;;;13.00;61.40;;;;;;5104539;27;20472;-91
2022/10/05 03:48:12;;;;;;;37.63;14.07;;;13.30;61.90;;;;;;5088350;27;20450;-90
2022/10/05 03:50:45;;;;;;;36.70;11.63;;;13.60;60.80;;;;;;5096325;27;20442;-91
2022/10/05 03:53:19;;;;;;;35.23;6.90;;;13.70;60.60;;;;;;5098379;27;20446;-91
2022/10/05 03:55:51;;;;;;;33.00;7.27;;;13.80;60.30;;;;;;5105279;27;20523;-90
2022/10/05 03:58:24;;;;;;;48.70;7.17;;;13.90;60.10;;;;;;5089932;27;20443;-91
2022/10/05 04:00:56;;;;;;;18.83;4.20;;;13.90;60.00;;;;;;5088887;28;20442;-91
2022/10/05 04:03:32;;;;;;;41.70;6.67;;;13.90;60.10;;;;;;5116589;27;20450;-91
2022/10/05 04:06:05;;;;;;;27.40;6.17;;;13.90;59.70;;;;;;5071386;28;20477;-91
2022/10/05 04:08:39;;;;;;;28.60;5.80;;;13.90;59.90;;;;;;5081015;28;20449;-91
2022/10/05 04:11:14;;;;;;;11.83;5.03;;;13.70;60.20;;;;;;5077180;28;20985;-90
2022/10/05 04:13:47;;;;;;;31.23;5.80;;;13.80;60.60;;;;;;5063773;28;20455;-90
2022/10/05 04:16:19;;;;;;;66.53;6.10;;;13.80;60.50;;;;;;5069073;28;20466;-90
2022/10/05 04:18:54;;;;;;;14.23;4.43;;;13.80;60.10;;;;;;5079005;28;20477;-90
2022/10/05 04:21:23;;;;;;;18.07;4.50;;;13.90;60.10;;;;;;5096325;28;20632;-90
2022/10/05 04:23:57;;;;;;;12.57;4.57;;;13.90;59.90;;;;;;5104039;28;20445;-90
2022/10/05 04:26:33;;;;;;;9.63;4.00;;;13.70;60.10;;;;;;5070789;28;20672;-90
2022/10/05 04:29:07;;;;;;;27.63;6.37;;;13.80;60.30;;;;;;5100371;28;20792;-90
2022/10/05 04:31:55;;;;;;;10.40;3.73;;;13.80;60.00;;;;;;5087492;28;20442;-92
2022/10/05 04:34:49;;;;;;;51.77;7.23;;;13.90;60.00;;;;;;5098787;28;20446;-88
2022/10/05 04:37:23;;;;;;;19.93;5.40;;;13.90;59.80;;;;;;5080138;28;20473;-90
2022/10/05 04:40:03;;;;;;;71.90;7.90;;;13.90;59.80;;;;;;5083604;28;20450;-90
2022/10/05 04:42:36;;;;;;;18.63;4.37;;;14.00;59.60;;;;;;5106651;28;20457;-90
2022/10/05 04:45:19;;;;;;;64.03;7.10;;;13.80;59.70;;;;;;5081494;28;20455;-90
2022/10/05 04:48:10;;;;;;;29.97;6.13;;;13.60;60.00;;;;;;5089730;28;20470;-91
2022/10/05 04:50:52;;;;;;;19.27;5.60;;;13.50;60.50;;;;;;5075627;27;20528;-90
2022/10/05 04:53:27;;;;;;;37.23;8.97;;;13.50;60.70;;;;;;5087137;28;20451;-90
2022/10/05 04:56:00;;;;;;;54.70;6.60;;;13.50;60.00;;;;;;5068540;28;20466;-91
2022/10/05 04:58:45;;;;;;;58.83;7.30;;;13.10;60.80;;;;;;5085275;28;20457;-91
2022/10/05 05:01:38;;;;;;;69.17;7.40;;;12.90;62.20;;;;;;5086327;28;20446;-91
2022/10/05 05:04:27;;;;;;;64.23;8.40;;;12.80;61.90;;;;;;5087995;28;20454;-91
2022/10/05 05:07:08;;;;;;;35.60;6.87;;;12.60;62.40;;;;;;5095217;27;20466;-89
2022/10/05 05:10:00;;;;;;;48.57;7.87;;;12.70;62.60;;;;;;5088894;27;20442;-91
2022/10/05 05:12:42;;;;;;;51.77;7.57;;;12.90;62.00;;;;;;5092143;27;20449;-90
2022/10/05 05:15:22;;;;;;;21.53;6.43;;;13.10;61.60;;;;;;5083780;27;20945;-90
2022/10/05 05:18:21;;;;;;;26.23;6.30;;;13.30;60.90;;;;;;5103179;27;20446;-91
2022/10/05 05:20:56;;;;;;;38.27;8.67;;;13.50;60.50;;;;;;5107769;27;20488;-90
2022/10/05 05:23:32;;;;;;;35.70;6.40;;;13.40;60.10;;;;;;5107785;27;20437;-90
2022/10/05 05:26:11;;;;;;;63.03;7.90;;;13.50;60.10;;;;;;5090523;28;20474;-90
2022/10/05 05:28:45;;;;;;;36.07;9.13;;;13.50;59.90;;;;;;5087189;27;20482;-90
2022/10/05 05:31:23;;;;;;;141.40;14.30;;;13.60;59.70;;;;;;5088989;28;20442;-91
2022/10/05 05:33:58;;;;;;;30.83;7.63;;;13.50;59.90;;;;;;5115531;27;20446;-90
2022/10/05 05:36:45;;;;;;;53.03;7.03;;;13.50;59.80;;;;;;5113327;27;20466;-91
2022/10/05 05:39:24;;;;;;;31.93;6.20;;;13.40;60.10;;;;;;5091510;27;20455;-91
2022/10/05 05:42:00;;;;;;;17.30;8.33;;;13.20;60.40;;;;;;5087535;27;20445;-91
2022/10/05 05:44:31;;;;;;;31.03;6.47;;;13.40;60.30;;;;;;5100039;27;20438;-90
2022/10/05 05:47:02;;;;;;;40.57;6.50;;;13.20;60.00;;;;;;5101894;27;20470;-91
2022/10/05 05:49:42;;;;;;;44.13;8.53;;;13.10;60.60;;;;;;5088527;27;20457;-90
2022/10/05 05:52:16;;;;;;;17.13;4.83;;;12.90;60.50;;;;;;5115274;27;20489;-91
2022/10/05 05:54:49;;;;;;;43.37;6.70;;;12.70;61.40;;;;;;5089028;27;20442;-91
2022/10/05 05:57:23;;;;;;;46.03;6.30;;;12.60;61.60;;;;;;5091580;27;20467;-91
2022/10/05 06:00:00;;;;;;;28.83;5.43;;;12.70;61.40;;;;;;5067124;27;20500;-91
2022/10/05 06:02:35;;;;;;;47.97;6.20;;;12.40;61.90;;;;;;5068775;28;20454;-90
2022/10/05 06:05:09;;;;;;;66.67;7.40;;;12.30;62.40;;;;;;5081016;27;20478;-92
2022/10/05 06:07:38;;;;;;;96.03;7.63;;;12.30;62.80;;;;;;5086615;27;20910;-90
2022/10/05 06:10:29;;;;;;;19.87;4.87;;;12.20;62.60;;;;;;5092565;27;20461;-91
2022/10/05 06:13:17;;;;;;;5.20;4.00;;;12.40;62.60;;;;;;5072580;27;20450;-91
2022/10/05 06:15:49;;;;;;;16.47;5.07;;;12.80;62.20;;;;;;5082406;27;20478;-91
2022/10/05 06:18:20;;;;;;;30.50;5.10;;;13.00;61.40;;;;;;5115353;27;20443;-90
2022/10/05 06:20:53;;;;;;;23.00;6.33;;;13.20;60.90;;;;;;5071601;27;20488;-91
2022/10/05 06:23:26;;;;;;;11.30;4.87;;;13.00;60.50;;;;;;5089383;27;20451;-91
2022/10/05 06:26:18;;;;;;;33.30;7.20;;;13.10;60.70;;;;;;5066664;27;20483;-91
2022/10/05 06:28:51;;;;;;;33.63;9.87;;;13.20;60.20;;;;;;5078626;27;20462;-91
2022/10/05 06:31:31;;;;;;;17.03;7.07;;;13.30;60.10;;;;;;5095856;27;20447;-91
2022/10/05 06:34:14;;;;;;;14.20;5.17;;;13.20;60.40;;;;;;5095107;27;20476;-91
2022/10/05 06:36:48;;;;;;;26.17;6.90;;;13.40;60.20;;;;;;5083333;27;20503;-91
2022/10/05 06:39:36;;;;;;;45.30;7.70;;;13.50;60.00;;;;;;5066077;27;20859;-91
2022/10/05 06:42:16;;;;;;;12.87;6.50;;;13.50;59.70;;;;;;5108858;27;20448;-90
2022/10/05 06:45:08;;;;;;;52.63;21.37;;;13.60;59.90;;;;;;5079409;27;20462;-90
2022/10/05 06:47:52;;;;;;;69.20;14.80;;;13.70;59.50;;;;;;5091494;27;20519;-90
2022/10/05 06:50:42;;;;;;;20.40;8.13;;;13.10;60.50;;;;;;5084845;27;20431;-91
2022/10/05 06:53:34;;;;;;;90.50;10.90;;;13.00;61.30;;;;;;5088381;27;20442;-91
2022/10/05 06:56:09;;;;;;;36.83;5.70;;;12.70;62.00;;;;;;5090266;27;20910;-90
2022/10/05 06:58:48;;;;;;;10.60;5.37;;;12.70;62.30;;;;;;5080476;27;20453;-91
2022/10/05 07:01:21;;;;;;;17.47;6.10;;;12.90;61.90;;;;;;5097299;28;20455;-92
2022/10/05 07:04:04;;;;;;;22.50;6.83;;;13.00;61.40;;;;;;5083263;28;20447;-91
2022/10/05 07:06:37;;;;;;;83.30;11.20;;;12.90;61.70;;;;;;5074362;27;20459;-92
2022/10/05 07:09:21;;;;;;;30.30;6.80;;;12.60;61.60;;;;;;5067025;28;20454;-90
2022/10/05 07:12:07;;;;;;;21.00;7.53;;;12.80;62.10;;;;;;5100123;27;20454;-91
2022/10/05 07:15:02;;;;;;;29.10;8.10;;;13.00;61.70;;;;;;5090648;27;20453;-91
2022/10/05 07:17:45;;;;;;;63.40;9.43;;;12.90;61.60;;;;;;5103447;27;21064;-91
2022/10/05 07:20:18;;;;;;;57.53;7.80;;;12.90;61.40;;;;;;5089261;27;20544;-91
2022/10/05 07:23:11;;;;;;;57.90;8.40;;;12.70;62.30;;;;;;5106637;27;20470;-91
2022/10/05 07:25:47;;;;;;;75.63;8.80;;;12.60;62.50;;;;;;5099676;27;21006;-91
2022/10/05 07:28:20;;;;;;;37.40;8.77;;;12.70;62.30;;;;;;5104191;28;20562;-90
2022/10/05 07:30:56;;;;;;;38.43;9.00;;;12.70;62.60;;;;;;5100017;27;20443;-91
2022/10/05 07:33:28;;;;;;;68.40;10.73;;;12.60;62.80;;;;;;5089658;27;20454;-91
2022/10/05 07:38:55;;;;;;;58.60;8.97;;;12.40;63.40;;;;;;5088618;27;20949;-90
2022/10/05 07:41:32;;;;;;;127.50;14.00;;;12.60;63.20;;;;;;5089980;27;21149;-90
2022/10/05 07:44:11;;;;;;;20.57;7.90;;;12.80;62.70;;;;;;5090964;27;20457;-91
2022/10/05 07:46:49;;;;;;;127.87;12.97;;;12.90;63.20;;;;;;5092632;27;20465;-91
2022/10/05 07:49:25;;;;;;;154.73;14.13;;;12.90;62.20;;;;;;5103561;27;21040;-91
2022/10/05 07:51:56;;;;;;;25.13;9.80;;;12.90;62.50;;;;;;5089762;27;20443;-91
2022/10/05 07:54:29;;;;;;;27.87;12.17;;;13.00;63.70;;;;;;5104178;27;20948;-91
2022/10/05 07:57:05;;;;;;;62.90;18.60;;;13.00;63.40;;;;;;5100408;28;20477;-90
2022/10/05 07:59:42;;;;;;;17.80;10.73;;;13.10;63.30;;;;;;5117281;27;20519;-90
2022/10/05 08:02:23;;;;;;;32.80;20.03;;;13.20;63.00;;;;;;5124263;27;20545;-92
2022/10/05 08:04:55;;;;;;;15.63;6.83;;;13.30;62.50;;;;;;5098855;28;20446;-93
2022/10/05 08:07:23;;;;;;;11.07;6.77;;;13.40;62.20;;;;;;5123977;27;20470;-92
2022/10/05 08:09:55;;;;;;;25.90;12.73;;;13.50;62.30;;;;;;5103907;28;20445;-91
2022/10/05 08:12:32;;;;;;;54.73;11.40;;;13.60;61.90;;;;;;5092566;28;20884;-91
2022/10/05 08:15:05;;;;;;;14.07;7.53;;;13.50;62.10;;;;;;5124036;28;20451;-90
2022/10/05 08:17:46;;;;;;;10.73;7.13;;;13.60;62.10;;;;;;5090707;28;20548;-91
2022/10/05 08:20:32;;;;;;;12.57;7.17;;;13.90;61.80;;;;;;5117477;28;20477;-91
2022/10/05 08:23:04;;;;;;;13.40;7.13;;;13.90;61.30;;;;;;5098026;28;20508;-92
2022/10/05 08:25:41;;;;;;;19.20;12.33;;;13.90;61.70;;;;;;5109196;28;20466;-91
2022/10/05 08:28:18;;;;;;;9.13;8.20;;;13.80;61.60;;;;;;5118441;28;20453;-91
2022/10/05 08:30:53;;;;;;;20.23;6.70;;;13.70;62.70;;;;;;5106493;28;21269;-91
2022/10/05 08:33:24;;;;;;;10.47;7.23;;;14.00;62.20;;;;;;5096660;28;20533;-90
2022/10/05 08:35:59;;;;;;;9.70;7.60;;;14.20;61.50;;;;;;5091529;28;20462;-90
2022/10/05 08:38:32;;;;;;;17.33;6.40;;;14.50;61.90;;;;;;5109149;28;20457;-91
2022/10/05 08:41:27;;;;;;;25.37;12.50;;;14.60;59.80;;;;;;5089513;27;20456;-91
2022/10/05 08:44:24;;;;;;;28.03;14.93;;;14.60;60.30;;;;;;5094673;27;20466;-91
2022/10/05 08:47:15;;;;;;;16.80;11.43;;;14.50;61.30;;;;;;5097298;27;20965;-92
2022/10/05 08:50:25;;;;;;;10.50;7.93;;;14.50;61.10;;;;;;5107012;27;20442;-91
2022/10/05 08:53:20;;;;;;;19.47;11.47;;;14.40;61.50;;;;;;5098007;27;20445;-91
2022/10/05 08:56:03;;;;;;;14.63;8.57;;;14.40;61.90;;;;;;5110060;27;20839;-91
2022/10/05 08:59:10;;;;;;;31.10;10.60;;;14.50;62.10;;;;;;5123612;27;21140;-91
2022/10/05 09:01:57;;;;;;;13.40;8.77;;;14.60;61.30;;;;;;5047282;28;20507;-92
2022/10/05 09:04:45;;;;;;;18.93;12.20;;;14.70;61.60;;;;;;5024536;28;20463;-90
2022/10/05 09:07:33;;;;;;;14.43;9.60;;;14.60;62.00;;;;;;5079549;27;20561;-91
2022/10/05 09:10:37;;;;;;;21.43;10.20;;;14.60;62.00;;;;;;5120277;27;20540;-91
2022/10/05 09:13:25;;;;;;;16.10;10.60;;;14.40;62.90;;;;;;5092239;27;20469;-92
2022/10/05 09:16:13;;;;;;;14.67;10.70;;;14.80;62.50;;;;;;5109980;27;20462;-91
2022/10/05 09:19:10;;;;;;;24.20;10.50;;;15.20;62.30;;;;;;5117528;27;20496;-91
2022/10/05 09:21:42;;;;;;;11.60;9.57;;;15.20;61.20;;;;;;5094815;27;20457;-90
2022/10/05 09:24:28;;;;;;;17.03;10.33;;;15.00;61.60;;;;;;5105911;27;20478;-90
2022/10/05 09:27:03;;;;;;;11.60;8.50;;;15.10;61.80;;;;;;5119536;27;20478;-91
2022/10/05 09:30:05;;;;;;;17.03;10.57;;;15.30;61.30;;;;;;5122387;27;20477;-91
2022/10/05 09:32:56;;;;;;;15.83;9.63;;;15.30;61.10;;;;;;5070795;27;20449;-91
2022/10/05 09:35:47;;;;;;;13.07;9.17;;;15.40;61.20;;;;;;5079099;27;20443;-92
2022/10/05 09:38:24;;;;;;;12.17;9.13;;;15.60;61.20;;;;;;5105250;27;20442;-91
2022/10/05 09:41:30;;;;;;;15.60;8.67;;;15.60;61.30;;;;;;5118953;27;20878;-92
2022/10/05 09:44:28;;;;;;;11.83;9.27;;;15.80;61.10;;;;;;5034503;27;20962;-91
2022/10/05 09:47:34;;;;;;;12.33;8.30;;;15.80;61.10;;;;;;5118955;27;20565;-91
2022/10/05 09:50:32;;;;;;;12.57;9.87;;;15.70;61.60;;;;;;5091813;27;20478;-92
2022/10/05 09:53:39;;;;;;;17.40;8.67;;;15.90;61.80;;;;;;5091636;27;20465;-91
2022/10/05 09:56:22;;;;;;;11.07;8.53;;;16.10;61.30;;;;;;5123865;27;20533;-89
2022/10/05 09:59:27;;;;;;;9.67;7.53;;;16.20;61.70;;;;;;5091460;27;20533;-91
2022/10/05 10:02:20;;;;;;;8.80;7.50;;;16.30;61.90;;;;;;5101077;28;20544;-91
2022/10/05 10:05:05;;;;;;;7.47;6.67;;;16.50;61.90;;;;;;5101355;27;20554;-92
2022/10/05 10:07:58;;;;;;;9.73;7.73;;;16.70;61.90;;;;;;5101905;27;20461;-91
2022/10/05 10:10:52;;;;;;;11.10;7.73;;;16.90;62.00;;;;;;5088829;27;20474;-91
2022/10/05 10:13:41;;;;;;;14.53;10.20;;;17.00;63.10;;;;;;5107643;27;20542;-91
2022/10/05 10:16:17;;;;;;;20.57;13.73;;;17.20;62.80;;;;;;5100275;27;20463;-91
2022/10/05 10:19:05;;;;;;;10.70;7.00;;;17.40;63.20;;;;;;5093322;27;20465;-91
2022/10/05 10:22:00;;;;;;;20.57;11.10;;;17.60;67.00;;;;;;5092090;27;20995;-90
2022/10/05 10:24:47;;;;;;;11.17;8.27;;;17.90;66.10;;;;;;5080169;27;20917;-92
2022/10/05 10:27:36;;;;;;;8.30;6.03;;;18.30;65.10;;;;;;5107906;27;20473;-90
2022/10/05 10:30:32;;;;;;;10.00;6.50;;;18.60;64.50;;;;;;5117095;27;20451;-90
2022/10/05 10:33:29;;;;;;;6.70;5.47;;;18.80;64.60;;;;;;5092679;27;20466;-91
2022/10/05 10:36:03;;;;;;;6.50;5.20;;;19.20;63.80;;;;;;5093401;27;20540;-91
2022/10/05 10:38:35;;;;;;;6.10;5.23;;;19.40;63.40;;;;;;5096596;27;20446;-93
2022/10/05 10:41:41;;;;;;;6.43;4.90;;;19.50;63.10;;;;;;5107092;27;20483;-91
2022/10/05 10:44:37;;;;;;;7.13;5.20;;;19.90;62.40;;;;;;5102689;27;20953;-91
2022/10/05 10:47:24;;;;;;;9.97;5.10;;;20.10;61.30;;;;;;5091364;27;20516;-91
2022/10/05 10:50:28;;;;;;;6.40;4.33;;;20.20;60.50;;;;;;5089681;27;20549;-92
2022/10/05 10:53:08;;;;;;;6.77;5.03;;;20.30;60.40;;;;;;5086754;27;20469;-92
2022/10/05 10:55:47;;;;;;;5.73;4.60;;;20.40;60.70;;;;;;5106300;27;20469;-92
2022/10/05 10:59:03;;;;;;;4.93;4.23;;;20.50;60.00;;;;;;5117486;27;20439;-91
2022/10/05 11:01:35;;;;;;;8.03;5.17;;;20.70;59.70;;;;;;5116389;27;20542;-91
2022/10/05 11:04:46;;;;;;;3.80;3.40;;;21.00;59.10;;;;;;5100486;28;20461;-92
2022/10/05 11:07:47;;;;;;;5.63;3.67;;;21.10;58.80;;;;;;5122592;27;20457;-90
2022/10/05 11:10:31;;;;;;;4.60;3.93;;;21.30;58.70;;;;;;5100759;27;20457;-90
2022/10/05 11:13:23;;;;;;;4.80;3.90;;;21.50;57.70;;;;;;5122377;27;20467;-92
2022/10/05 11:16:10;;;;;;;8.87;3.73;;;21.70;57.90;;;;;;5091091;28;20474;-92
2022/10/05 11:19:06;;;;;;;11.40;3.90;;;21.70;57.20;;;;;;5115505;27;20481;-91
2022/10/05 11:21:45;;;;;;;3.90;3.50;;;22.20;57.10;;;;;;5118809;27;20980;-90
2022/10/05 11:24:49;;;;;;;3.90;3.60;;;22.40;56.70;;;;;;5098112;27;20467;-91
2022/10/05 11:27:33;;;;;;;3.83;3.53;;;22.60;56.60;;;;;;5105491;27;20465;-91
2022/10/05 11:30:22;;;;;;;5.60;3.50;;;22.80;55.50;;;;;;5090381;28;20970;-90
2022/10/05 11:33:28;;;;;;;4.30;3.50;;;23.10;55.40;;;;;;5119827;27;20971;-91
2022/10/05 11:36:14;;;;;;;3.77;3.07;;;23.30;54.70;;;;;;5084970;27;20498;-91
2022/10/05 11:39:05;;;;;;;3.60;3.10;;;23.30;54.80;;;;;;5083004;27;20542;-91
2022/10/05 11:42:01;;;;;;;5.17;3.30;;;23.40;54.20;;;;;;5117265;27;20500;-90
2022/10/05 11:44:59;;;;;;;2.90;2.60;;;23.50;53.80;;;;;;5093023;27;21106;-90
2022/10/05 11:47:29;;;;;;;3.20;2.63;;;23.70;53.60;;;;;;5104945;27;20496;-90
2022/10/05 11:50:05;;;;;;;2.73;2.40;;;23.80;53.60;;;;;;5097395;28;20446;-89
2022/10/05 11:52:40;;;;;;;3.57;2.87;;;23.80;54.00;;;;;;5121323;27;20451;-92
2022/10/05 11:55:18;;;;;;;2.90;2.60;;;24.00;53.50;;;;;;5118725;27;20446;-89
2022/10/05 11:57:51;;;;;;;5.77;3.23;;;24.30;53.20;;;;;;5105676;28;20438;-90
2022/10/05 12:00:20;;;;;;;3.10;2.70;;;24.30;52.80;;;;;;5121434;27;20446;-91
2022/10/05 12:03:21;;;;;;;2.20;2.10;;;24.30;52.70;;;;;;5104357;27;20434;-93
2022/10/05 12:06:05;;;;;;;2.80;2.50;;;24.20;51.60;;;;;;5082024;27;20473;-91
2022/10/05 12:08:40;;;;;;;2.80;2.60;;;23.90;52.60;;;;;;5094187;28;20490;-90
2022/10/05 12:11:34;;;;;;;3.00;2.27;;;24.10;52.30;;;;;;5090187;28;20442;-91
2022/10/05 12:14:08;;;;;;;2.90;2.60;;;24.30;52.10;;;;;;5117146;27;20439;-90
2022/10/05 12:16:43;;;;;;;3.23;2.47;;;24.30;52.00;;;;;;5099084;28;20465;-91
2022/10/05 12:19:17;;;;;;;2.63;2.10;;;24.40;52.10;;;;;;5086388;28;20453;-90
2022/10/05 12:21:49;;;;;;;2.50;2.30;;;24.70;51.40;;;;;;5092072;28;20442;-91
2022/10/05 12:24:23;;;;;;;2.53;2.33;;;24.90;51.20;;;;;;5123808;28;20872;-93
2022/10/05 12:26:57;;;;;;;2.07;1.97;;;24.90;51.20;;;;;;5127661;28;20572;-91
2022/10/05 12:29:31;;;;;;;6.53;3.67;;;24.90;51.40;;;;;;5081262;28;20566;-91
2022/10/05 12:32:03;;;;;;;3.20;2.63;;;24.90;50.80;;;;;;5105286;28;20462;-90
2022/10/05 12:34:42;;;;;;;2.40;2.20;;;25.00;51.10;;;;;;5114706;28;20444;-90
2022/10/05 12:37:26;;;;;;;4.13;2.40;;;25.10;51.50;;;;;;5091684;28;20466;-90
2022/10/05 12:39:58;;;;;;;6.53;3.80;;;25.30;50.80;;;;;;5124330;28;20455;-92
2022/10/05 12:42:32;;;;;;;3.40;2.17;;;25.40;50.00;;;;;;5121286;28;20486;-91
2022/10/05 12:45:16;;;;;;;3.33;2.40;;;25.40;49.70;;;;;;5096005;28;20434;-91
2022/10/05 12:47:58;;;;;;;2.80;2.57;;;25.50;50.40;;;;;;5109259;28;20908;-90
2022/10/05 12:50:30;;;;;;;3.33;2.43;;;25.40;50.00;;;;;;5104519;28;20434;-90
2022/10/05 12:53:16;;;;;;;4.60;2.40;;;25.50;50.30;;;;;;5102736;28;20457;-91
2022/10/05 12:55:53;;;;;;;4.37;2.63;;;25.60;49.70;;;;;;5105760;28;20487;-91
2022/10/05 12:58:33;;;;;;;2.40;2.20;;;25.60;49.10;;;;;;5115418;28;20778;-90
2022/10/05 13:01:09;;;;;;;2.30;2.20;;;25.40;49.40;;;;;;5104708;28;20434;-90
2022/10/05 13:03:39;;;;;;;4.53;2.37;;;25.40;50.30;;;;;;5099552;28;20452;-90
2022/10/05 13:06:15;;;;;;;2.70;2.43;;;25.40;50.10;;;;;;5123211;28;20458;-89
2022/10/05 13:08:51;;;;;;;2.73;2.53;;;25.40;49.80;;;;;;5113616;28;20466;-90
2022/10/05 13:11:27;;;;;;;4.03;2.50;;;25.50;50.30;;;;;;5093962;28;20586;-90
2022/10/05 13:14:06;;;;;;;5.57;2.37;;;25.10;51.90;;;;;;5115176;28;20533;-92
2022/10/05 13:16:43;;;;;;;4.30;2.13;;;25.10;50.10;;;;;;5117438;28;20488;-90
2022/10/05 13:19:29;;;;;;;2.50;2.30;;;25.10;50.40;;;;;;5097377;28;20438;-91
2022/10/05 13:22:13;;;;;;;2.70;2.47;;;25.10;49.60;;;;;;5117841;28;20445;-91
2022/10/05 13:24:51;;;;;;;2.53;1.90;;;24.90;50.00;;;;;;5117508;28;20445;-91
2022/10/05 13:27:21;;;;;;;2.87;2.07;;;25.00;50.50;;;;;;5116667;27;20553;-90
2022/10/05 13:29:55;;;;;;;2.43;2.23;;;25.10;50.50;;;;;;5121331;27;20457;-90
2022/10/05 13:32:27;;;;;;;2.83;2.10;;;25.20;49.80;;;;;;5116146;27;20499;-89
2022/10/05 13:35:04;;;;;;;2.70;2.30;;;25.10;50.30;;;;;;5102660;28;20450;-90
2022/10/05 13:37:42;;;;;;;3.27;2.03;;;25.30;50.50;;;;;;5102883;27;20519;-91
2022/10/05 13:40:24;;;;;;;7.63;3.27;;;25.50;50.20;;;;;;5120714;27;20442;-90
2022/10/05 13:42:59;;;;;;;3.00;2.70;;;25.80;50.40;;;;;;5101355;27;20489;-90
2022/10/05 13:45:30;;;;;;;2.90;2.70;;;25.80;49.60;;;;;;5094010;27;21905;-91
2022/10/05 13:48:12;;;;;;;6.33;2.80;;;25.80;50.00;;;;;;5120258;27;20533;-90